sensor_id;sensor_type;location;lat;lon;timestamp;temperature;humidity
20831;DHT22;10576;53.556;9.868;2023-08-24T00:00:38;18.10;99.90
20831;DHT22;10576;53.556;9.868;2023-08-24T00:03:04;18.10;99.90
20831;DHT22;10576;53.556;9.868;2023-08-24T00:05:33;18.10;99.90
20831;DHT22;10576;53.556;9.868;2023-08-24T00:07:59;18.00;99.90
20831;DHT22;10576;53.556;9.868;2023-08-24T00:10:25;18.00;99.90
20831;DHT22;10576;53.556;9.868;2023-08-24T00:12:51;18.00;99.90
20831;DHT22;10576;53.556;9.868;2023-08-24T00:15:17;17.90;99.90
20831;DHT22;10576;53.556;9.868;2023-08-24T00:17:42;17.90;99.90
20831;DHT22;10576;53.556;9.868;2023-08-24T00:20:08;17.90;99.90
20831;DHT22;10576;53.556;9.868;2023-08-24T00:22:40;17.80;99.90
20831;DHT22;10576;53.556;9.868;2023-08-24T00:25:09;17.80;99.90
20831;DHT22;10576;53.556;9.868;2023-08-24T00:27:35;17.80;99.90
20831;DHT22;10576;53.556;9.868;2023-08-24T00:30:06;17.80;99.90
20831;DHT22;10576;53.556;9.868;2023-08-24T00:32:32;17.70;99.90
20831;DHT22;10576;53.556;9.868;2023-08-24T00:35:00;17.80;99.90
20831;DHT22;10576;53.556;9.868;2023-08-24T00:37:26;17.70;99.90
20831;DHT22;10576;53.556;9.868;2023-08-24T00:39:54;17.70;99.90
20831;DHT22;10576;53.556;9.868;2023-08-24T00:42:19;17.60;99.90
20831;DHT22;10576;53.556;9.868;2023-08-24T00:44:45;17.60;99.90
20831;DHT22;10576;53.556;9.868;2023-08-24T00:47:11;17.60;99.90
20831;DHT22;10576;53.556;9.868;2023-08-24T00:49:36;17.60;99.90
20831;DHT22;10576;53.556;9.868;2023-08-24T00:52:02;17.50;99.90
20831;DHT22;10576;53.556;9.868;2023-08-24T00:54:29;17.50;99.90
20831;DHT22;10576;53.556;9.868;2023-08-24T00:56:54;17.40;99.90
20831;DHT22;10576;53.556;9.868;2023-08-24T00:59:20;17.40;99.90
20831;DHT22;10576;53.556;9.868;2023-08-24T01:01:47;17.30;99.90
20831;DHT22;10576;53.556;9.868;2023-08-24T01:04:13;17.30;99.90
20831;DHT22;10576;53.556;9.868;2023-08-24T01:06:39;17.30;99.90
20831;DHT22;10576;53.556;9.868;2023-08-24T01:09:05;17.30;99.90
20831;DHT22;10576;53.556;9.868;2023-08-24T01:12:00;17.20;99.90
20831;DHT22;10576;53.556;9.868;2023-08-24T01:14:50;17.20;99.90
20831;DHT22;10576;53.556;9.868;2023-08-24T01:17:22;17.20;99.90
20831;DHT22;10576;53.556;9.868;2023-08-24T01:19:49;17.10;99.90
20831;DHT22;10576;53.556;9.868;2023-08-24T01:22:28;17.00;99.90
20831;DHT22;10576;53.556;9.868;2023-08-24T01:25:31;17.10;99.90
20831;DHT22;10576;53.556;9.868;2023-08-24T01:27:59;17.10;99.90
20831;DHT22;10576;53.556;9.868;2023-08-24T01:30:25;17.00;99.90
20831;DHT22;10576;53.556;9.868;2023-08-24T01:32:51;17.00;99.90
20831;DHT22;10576;53.556;9.868;2023-08-24T01:35:17;16.90;99.90
20831;DHT22;10576;53.556;9.868;2023-08-24T01:37:43;16.90;99.90
20831;DHT22;10576;53.556;9.868;2023-08-24T01:40:23;16.90;99.90
20831;DHT22;10576;53.556;9.868;2023-08-24T01:42:56;16.90;99.90
20831;DHT22;10576;53.556;9.868;2023-08-24T01:45:25;16.90;99.90
20831;DHT22;10576;53.556;9.868;2023-08-24T01:47:54;16.80;99.90
20831;DHT22;10576;53.556;9.868;2023-08-24T01:50:20;16.70;99.90
20831;DHT22;10576;53.556;9.868;2023-08-24T01:52:46;16.70;99.90
20831;DHT22;10576;53.556;9.868;2023-08-24T01:55:12;16.70;99.90
20831;DHT22;10576;53.556;9.868;2023-08-24T01:57:38;16.40;99.90
20831;DHT22;10576;53.556;9.868;2023-08-24T02:00:05;16.60;99.90
20831;DHT22;10576;53.556;9.868;2023-08-24T02:02:35;16.60;99.90
20831;DHT22;10576;53.556;9.868;2023-08-24T02:05:01;16.60;99.90
20831;DHT22;10576;53.556;9.868;2023-08-24T02:07:28;16.50;99.90
20831;DHT22;10576;53.556;9.868;2023-08-24T02:09:53;16.50;99.90
20831;DHT22;10576;53.556;9.868;2023-08-24T02:12:19;16.50;99.90
20831;DHT22;10576;53.556;9.868;2023-08-24T02:14:44;16.50;99.90
20831;DHT22;10576;53.556;9.868;2023-08-24T02:17:10;16.40;99.90
20831;DHT22;10576;53.556;9.868;2023-08-24T02:19:36;16.40;99.90
20831;DHT22;10576;53.556;9.868;2023-08-24T02:22:01;16.40;99.90
20831;DHT22;10576;53.556;9.868;2023-08-24T02:24:27;16.40;99.90
20831;DHT22;10576;53.556;9.868;2023-08-24T02:26:52;16.30;99.90
20831;DHT22;10576;53.556;9.868;2023-08-24T02:29:18;16.40;99.90
20831;DHT22;10576;53.556;9.868;2023-08-24T02:31:44;16.30;99.90
20831;DHT22;10576;53.556;9.868;2023-08-24T02:34:10;16.30;99.90
20831;DHT22;10576;53.556;9.868;2023-08-24T02:36:35;16.30;99.90
20831;DHT22;10576;53.556;9.868;2023-08-24T02:39:01;16.30;99.90
20831;DHT22;10576;53.556;9.868;2023-08-24T02:41:27;16.30;99.90
20831;DHT22;10576;53.556;9.868;2023-08-24T02:43:53;16.30;99.90
20831;DHT22;10576;53.556;9.868;2023-08-24T02:46:20;16.30;99.90
20831;DHT22;10576;53.556;9.868;2023-08-24T02:48:46;16.20;99.90
20831;DHT22;10576;53.556;9.868;2023-08-24T02:51:11;16.20;99.90
20831;DHT22;10576;53.556;9.868;2023-08-24T02:53:37;16.20;99.90
20831;DHT22;10576;53.556;9.868;2023-08-24T02:56:03;16.20;99.90
20831;DHT22;10576;53.556;9.868;2023-08-24T02:58:29;16.20;99.90
20831;DHT22;10576;53.556;9.868;2023-08-24T03:00:55;16.10;99.90
20831;DHT22;10576;53.556;9.868;2023-08-24T03:03:21;16.10;99.90
20831;DHT22;10576;53.556;9.868;2023-08-24T03:06:04;16.10;99.90
20831;DHT22;10576;53.556;9.868;2023-08-24T03:08:30;16.10;99.90
20831;DHT22;10576;53.556;9.868;2023-08-24T03:10:57;16.10;99.90
20831;DHT22;10576;53.556;9.868;2023-08-24T03:13:23;16.00;99.90
20831;DHT22;10576;53.556;9.868;2023-08-24T03:15:49;16.00;99.90
20831;DHT22;10576;53.556;9.868;2023-08-24T03:18:16;16.00;99.90
20831;DHT22;10576;53.556;9.868;2023-08-24T03:20:43;15.90;99.90
20831;DHT22;10576;53.556;9.868;2023-08-24T03:23:09;15.90;99.90
20831;DHT22;10576;53.556;9.868;2023-08-24T03:25:39;15.90;99.90
20831;DHT22;10576;53.556;9.868;2023-08-24T03:28:06;15.90;99.90
20831;DHT22;10576;53.556;9.868;2023-08-24T03:30:36;15.80;99.90
20831;DHT22;10576;53.556;9.868;2023-08-24T03:33:01;15.80;99.90
20831;DHT22;10576;53.556;9.868;2023-08-24T03:35:29;15.80;99.90
20831;DHT22;10576;53.556;9.868;2023-08-24T03:37:55;15.80;99.90
20831;DHT22;10576;53.556;9.868;2023-08-24T03:40:21;15.80;99.90
20831;DHT22;10576;53.556;9.868;2023-08-24T03:42:47;15.80;99.90
20831;DHT22;10576;53.556;9.868;2023-08-24T03:45:12;15.80;99.90
20831;DHT22;10576;53.556;9.868;2023-08-24T03:47:38;15.80;99.90
20831;DHT22;10576;53.556;9.868;2023-08-24T03:50:04;15.70;99.90
20831;DHT22;10576;53.556;9.868;2023-08-24T03:52:30;15.70;99.90
20831;DHT22;10576;53.556;9.868;2023-08-24T03:54:57;15.70;99.90
20831;DHT22;10576;53.556;9.868;2023-08-24T03:57:22;15.70;99.90
20831;DHT22;10576;53.556;9.868;2023-08-24T03:59:48;15.70;99.90
20831;DHT22;10576;53.556;9.868;2023-08-24T04:02:14;15.60;99.90
20831;DHT22;10576;53.556;9.868;2023-08-24T04:04:40;15.60;99.90
20831;DHT22;10576;53.556;9.868;2023-08-24T04:07:06;15.60;99.90
20831;DHT22;10576;53.556;9.868;2023-08-24T04:09:31;15.60;99.90
20831;DHT22;10576;53.556;9.868;2023-08-24T04:11:57;15.50;99.90
20831;DHT22;10576;53.556;9.868;2023-08-24T04:14:23;15.60;99.90
20831;DHT22;10576;53.556;9.868;2023-08-24T04:16:48;15.50;99.90
20831;DHT22;10576;53.556;9.868;2023-08-24T04:19:14;15.50;99.90
20831;DHT22;10576;53.556;9.868;2023-08-24T04:21:39;15.50;99.90
20831;DHT22;10576;53.556;9.868;2023-08-24T04:24:05;15.50;99.90
20831;DHT22;10576;53.556;9.868;2023-08-24T04:26:31;15.40;99.90
20831;DHT22;10576;53.556;9.868;2023-08-24T04:28:57;15.40;99.90
20831;DHT22;10576;53.556;9.868;2023-08-24T04:31:23;15.40;99.90
20831;DHT22;10576;53.556;9.868;2023-08-24T04:33:48;15.40;99.90
20831;DHT22;10576;53.556;9.868;2023-08-24T04:36:14;15.40;99.90
20831;DHT22;10576;53.556;9.868;2023-08-24T04:38:40;15.40;99.90
20831;DHT22;10576;53.556;9.868;2023-08-24T04:41:08;15.50;99.90
20831;DHT22;10576;53.556;9.868;2023-08-24T04:43:34;15.50;99.90
20831;DHT22;10576;53.556;9.868;2023-08-24T04:46:02;15.50;99.90
20831;DHT22;10576;53.556;9.868;2023-08-24T04:48:27;15.40;99.90
20831;DHT22;10576;53.556;9.868;2023-08-24T04:50:58;15.40;99.90
20831;DHT22;10576;53.556;9.868;2023-08-24T04:53:24;15.40;99.90
20831;DHT22;10576;53.556;9.868;2023-08-24T04:55:50;15.40;99.90
20831;DHT22;10576;53.556;9.868;2023-08-24T04:58:16;15.40;99.90
20831;DHT22;10576;53.556;9.868;2023-08-24T05:00:42;15.40;99.90
20831;DHT22;10576;53.556;9.868;2023-08-24T05:03:08;15.40;99.90
20831;DHT22;10576;53.556;9.868;2023-08-24T05:05:34;15.40;99.90
20831;DHT22;10576;53.556;9.868;2023-08-24T05:08:02;15.40;99.90
20831;DHT22;10576;53.556;9.868;2023-08-24T05:10:31;15.40;99.90
20831;DHT22;10576;53.556;9.868;2023-08-24T05:12:57;15.40;99.90
20831;DHT22;10576;53.556;9.868;2023-08-24T05:15:23;15.50;99.90
20831;DHT22;10576;53.556;9.868;2023-08-24T05:17:48;15.50;99.90
20831;DHT22;10576;53.556;9.868;2023-08-24T05:20:15;15.50;99.90
20831;DHT22;10576;53.556;9.868;2023-08-24T05:22:41;15.50;99.90
20831;DHT22;10576;53.556;9.868;2023-08-24T05:25:07;15.50;99.90
20831;DHT22;10576;53.556;9.868;2023-08-24T05:27:32;15.50;99.90
20831;DHT22;10576;53.556;9.868;2023-08-24T05:29:58;15.50;99.90
20831;DHT22;10576;53.556;9.868;2023-08-24T05:32:24;15.50;99.90
20831;DHT22;10576;53.556;9.868;2023-08-24T05:34:50;15.60;99.90
20831;DHT22;10576;53.556;9.868;2023-08-24T05:37:16;15.60;99.90
20831;DHT22;10576;53.556;9.868;2023-08-24T05:39:42;15.60;99.90
20831;DHT22;10576;53.556;9.868;2023-08-24T05:42:08;15.60;99.90
20831;DHT22;10576;53.556;9.868;2023-08-24T05:44:34;15.70;99.90
20831;DHT22;10576;53.556;9.868;2023-08-24T05:47:00;15.70;99.90
20831;DHT22;10576;53.556;9.868;2023-08-24T05:49:26;15.80;99.90
20831;DHT22;10576;53.556;9.868;2023-08-24T05:51:52;15.80;99.90
20831;DHT22;10576;53.556;9.868;2023-08-24T05:54:18;15.90;99.90
20831;DHT22;10576;53.556;9.868;2023-08-24T05:56:47;16.00;99.90
20831;DHT22;10576;53.556;9.868;2023-08-24T05:59:13;16.00;99.90
20831;DHT22;10576;53.556;9.868;2023-08-24T06:01:40;16.20;99.90
20831;DHT22;10576;53.556;9.868;2023-08-24T06:04:07;16.20;99.90
20831;DHT22;10576;53.556;9.868;2023-08-24T06:06:33;16.30;99.90
20831;DHT22;10576;53.556;9.868;2023-08-24T06:08:59;16.40;99.90
20831;DHT22;10576;53.556;9.868;2023-08-24T06:11:24;16.50;99.90
20831;DHT22;10576;53.556;9.868;2023-08-24T06:13:50;16.50;99.90
20831;DHT22;10576;53.556;9.868;2023-08-24T06:16:19;16.60;99.90
20831;DHT22;10576;53.556;9.868;2023-08-24T06:18:45;16.60;99.90
20831;DHT22;10576;53.556;9.868;2023-08-24T06:21:10;16.80;99.90
20831;DHT22;10576;53.556;9.868;2023-08-24T06:23:36;16.80;99.90
20831;DHT22;10576;53.556;9.868;2023-08-24T06:26:01;15.20;99.90
20831;DHT22;10576;53.556;9.868;2023-08-24T06:28:27;17.10;99.90
20831;DHT22;10576;53.556;9.868;2023-08-24T06:30:54;17.20;99.90
20831;DHT22;10576;53.556;9.868;2023-08-24T06:33:20;17.20;99.90
20831;DHT22;10576;53.556;9.868;2023-08-24T06:35:46;17.20;99.90
20831;DHT22;10576;53.556;9.868;2023-08-24T06:38:12;17.30;99.90
20831;DHT22;10576;53.556;9.868;2023-08-24T06:40:39;17.30;99.90
20831;DHT22;10576;53.556;9.868;2023-08-24T06:43:04;17.30;99.90
20831;DHT22;10576;53.556;9.868;2023-08-24T06:45:31;17.50;99.90
20831;DHT22;10576;53.556;9.868;2023-08-24T06:47:56;17.70;99.90
20831;DHT22;10576;53.556;9.868;2023-08-24T06:50:22;17.90;99.90
20831;DHT22;10576;53.556;9.868;2023-08-24T06:52:48;17.90;99.90
20831;DHT22;10576;53.556;9.868;2023-08-24T06:55:14;17.80;99.90
20831;DHT22;10576;53.556;9.868;2023-08-24T06:57:39;18.00;99.90
20831;DHT22;10576;53.556;9.868;2023-08-24T07:00:06;18.10;99.90
20831;DHT22;10576;53.556;9.868;2023-08-24T07:02:35;18.10;99.90
20831;DHT22;10576;53.556;9.868;2023-08-24T07:05:02;18.10;99.90
20831;DHT22;10576;53.556;9.868;2023-08-24T07:07:30;18.10;99.90
20831;DHT22;10576;53.556;9.868;2023-08-24T07:09:56;18.20;99.90
20831;DHT22;10576;53.556;9.868;2023-08-24T07:12:21;18.30;99.90
20831;DHT22;10576;53.556;9.868;2023-08-24T07:14:47;18.30;99.90
20831;DHT22;10576;53.556;9.868;2023-08-24T07:17:12;18.30;99.90
20831;DHT22;10576;53.556;9.868;2023-08-24T07:19:38;18.40;99.90
20831;DHT22;10576;53.556;9.868;2023-08-24T07:22:04;18.40;99.90
20831;DHT22;10576;53.556;9.868;2023-08-24T07:24:29;18.50;99.90
20831;DHT22;10576;53.556;9.868;2023-08-24T07:26:55;18.50;99.90
20831;DHT22;10576;53.556;9.868;2023-08-24T07:29:21;18.50;99.90
20831;DHT22;10576;53.556;9.868;2023-08-24T07:31:47;18.50;99.90
20831;DHT22;10576;53.556;9.868;2023-08-24T07:34:14;18.50;99.90
20831;DHT22;10576;53.556;9.868;2023-08-24T07:36:39;18.50;99.90
20831;DHT22;10576;53.556;9.868;2023-08-24T07:39:07;18.60;99.90
20831;DHT22;10576;53.556;9.868;2023-08-24T07:41:32;18.70;99.90
20831;DHT22;10576;53.556;9.868;2023-08-24T07:43:58;18.70;99.90
20831;DHT22;10576;53.556;9.868;2023-08-24T07:46:24;18.80;99.90
20831;DHT22;10576;53.556;9.868;2023-08-24T07:48:50;18.90;99.90
20831;DHT22;10576;53.556;9.868;2023-08-24T07:51:15;18.90;99.90
20831;DHT22;10576;53.556;9.868;2023-08-24T07:53:41;19.00;99.90
20831;DHT22;10576;53.556;9.868;2023-08-24T07:56:07;19.30;99.90
20831;DHT22;10576;53.556;9.868;2023-08-24T07:58:32;19.60;99.90
20831;DHT22;10576;53.556;9.868;2023-08-24T08:00:59;19.70;99.90
20831;DHT22;10576;53.556;9.868;2023-08-24T08:03:25;19.80;99.90
20831;DHT22;10576;53.556;9.868;2023-08-24T08:05:51;20.10;99.90
20831;DHT22;10576;53.556;9.868;2023-08-24T08:08:17;20.30;99.90
20831;DHT22;10576;53.556;9.868;2023-08-24T08:10:43;20.70;99.90
20831;DHT22;10576;53.556;9.868;2023-08-24T08:13:09;20.80;99.90
20831;DHT22;10576;53.556;9.868;2023-08-24T08:15:37;21.10;99.90
20831;DHT22;10576;53.556;9.868;2023-08-24T08:18:06;21.40;99.90
20831;DHT22;10576;53.556;9.868;2023-08-24T08:20:31;21.80;99.90
20831;DHT22;10576;53.556;9.868;2023-08-24T08:22:58;21.90;99.90
20831;DHT22;10576;53.556;9.868;2023-08-24T08:25:23;21.70;99.90
20831;DHT22;10576;53.556;9.868;2023-08-24T08:27:49;21.90;99.90
20831;DHT22;10576;53.556;9.868;2023-08-24T08:30:15;21.80;99.90
20831;DHT22;10576;53.556;9.868;2023-08-24T08:32:41;21.80;99.90
20831;DHT22;10576;53.556;9.868;2023-08-24T08:35:08;21.90;99.90
20831;DHT22;10576;53.556;9.868;2023-08-24T08:37:34;22.00;99.90
20831;DHT22;10576;53.556;9.868;2023-08-24T08:40:02;22.30;99.90
20831;DHT22;10576;53.556;9.868;2023-08-24T08:42:31;22.30;99.90
20831;DHT22;10576;53.556;9.868;2023-08-24T08:44:57;22.60;99.90
20831;DHT22;10576;53.556;9.868;2023-08-24T08:47:25;22.50;99.90
20831;DHT22;10576;53.556;9.868;2023-08-24T08:49:51;22.50;99.90
20831;DHT22;10576;53.556;9.868;2023-08-24T08:52:17;22.60;99.90
20831;DHT22;10576;53.556;9.868;2023-08-24T08:54:43;22.80;99.90
20831;DHT22;10576;53.556;9.868;2023-08-24T08:57:10;22.80;99.90
20831;DHT22;10576;53.556;9.868;2023-08-24T08:59:35;23.00;99.90
20831;DHT22;10576;53.556;9.868;2023-08-24T09:02:02;22.90;99.90
20831;DHT22;10576;53.556;9.868;2023-08-24T09:04:32;22.90;99.90
20831;DHT22;10576;53.556;9.868;2023-08-24T09:06:59;22.90;99.90
20831;DHT22;10576;53.556;9.868;2023-08-24T09:09:29;23.00;99.90
20831;DHT22;10576;53.556;9.868;2023-08-24T09:11:55;23.20;99.90
20831;DHT22;10576;53.556;9.868;2023-08-24T09:14:21;23.20;99.90
20831;DHT22;10576;53.556;9.868;2023-08-24T09:16:47;23.20;99.90
20831;DHT22;10576;53.556;9.868;2023-08-24T09:19:12;23.20;99.90
20831;DHT22;10576;53.556;9.868;2023-08-24T09:21:39;23.30;99.90
20831;DHT22;10576;53.556;9.868;2023-08-24T09:24:06;23.20;99.90
20831;DHT22;10576;53.556;9.868;2023-08-24T09:26:33;23.30;99.90
20831;DHT22;10576;53.556;9.868;2023-08-24T09:29:00;23.40;99.90
20831;DHT22;10576;53.556;9.868;2023-08-24T09:31:36;23.50;99.90
20831;DHT22;10576;53.556;9.868;2023-08-24T09:34:03;23.50;99.90
20831;DHT22;10576;53.556;9.868;2023-08-24T09:36:32;23.60;99.90
20831;DHT22;10576;53.556;9.868;2023-08-24T09:38:59;23.60;99.90
20831;DHT22;10576;53.556;9.868;2023-08-24T09:41:46;23.50;99.90
20831;DHT22;10576;53.556;9.868;2023-08-24T09:44:11;23.40;99.90
20831;DHT22;10576;53.556;9.868;2023-08-24T09:46:38;22.80;99.90
20831;DHT22;10576;53.556;9.868;2023-08-24T09:49:09;23.10;99.90
20831;DHT22;10576;53.556;9.868;2023-08-24T09:51:35;23.40;99.90
20831;DHT22;10576;53.556;9.868;2023-08-24T09:54:09;23.30;99.90
20831;DHT22;10576;53.556;9.868;2023-08-24T09:56:39;23.40;99.90
20831;DHT22;10576;53.556;9.868;2023-08-24T09:59:16;23.40;99.90
20831;DHT22;10576;53.556;9.868;2023-08-24T10:01:47;23.70;99.90
20831;DHT22;10576;53.556;9.868;2023-08-24T10:04:24;23.50;99.90
20831;DHT22;10576;53.556;9.868;2023-08-24T10:07:06;23.50;99.90
20831;DHT22;10576;53.556;9.868;2023-08-24T10:10:03;23.80;99.90
20831;DHT22;10576;53.556;9.868;2023-08-24T10:12:32;23.70;99.90
20831;DHT22;10576;53.556;9.868;2023-08-24T10:15:01;24.00;99.90
20831;DHT22;10576;53.556;9.868;2023-08-24T10:17:36;24.30;99.90
20831;DHT22;10576;53.556;9.868;2023-08-24T10:20:02;24.70;99.90
20831;DHT22;10576;53.556;9.868;2023-08-24T10:22:35;24.90;99.90
20831;DHT22;10576;53.556;9.868;2023-08-24T10:25:02;25.00;99.90
20831;DHT22;10576;53.556;9.868;2023-08-24T10:27:28;25.30;99.90
20831;DHT22;10576;53.556;9.868;2023-08-24T10:29:55;25.30;99.90
20831;DHT22;10576;53.556;9.868;2023-08-24T10:32:22;25.10;99.90
20831;DHT22;10576;53.556;9.868;2023-08-24T10:34:48;25.20;99.90
20831;DHT22;10576;53.556;9.868;2023-08-24T10:37:14;25.10;99.90
20831;DHT22;10576;53.556;9.868;2023-08-24T10:39:45;25.40;99.90
20831;DHT22;10576;53.556;9.868;2023-08-24T10:42:12;25.40;99.90
20831;DHT22;10576;53.556;9.868;2023-08-24T10:44:39;25.70;99.90
20831;DHT22;10576;53.556;9.868;2023-08-24T10:47:11;25.80;99.90
20831;DHT22;10576;53.556;9.868;2023-08-24T10:49:38;25.50;99.90
20831;DHT22;10576;53.556;9.868;2023-08-24T10:54:47;25.30;99.90
20831;DHT22;10576;53.556;9.868;2023-08-24T10:57:31;25.20;99.90
20831;DHT22;10576;53.556;9.868;2023-08-24T11:02:50;24.80;99.90
20831;DHT22;10576;53.556;9.868;2023-08-24T11:08:05;25.80;99.90
20831;DHT22;10576;53.556;9.868;2023-08-24T11:15:44;25.60;99.90
20831;DHT22;10576;53.556;9.868;2023-08-24T11:20:48;25.90;99.90
20831;DHT22;10576;53.556;9.868;2023-08-24T11:23:17;25.80;99.90
20831;DHT22;10576;53.556;9.868;2023-08-24T11:25:44;25.80;99.90
20831;DHT22;10576;53.556;9.868;2023-08-24T11:28:10;25.80;99.90
20831;DHT22;10576;53.556;9.868;2023-08-24T11:30:36;25.40;99.90
20831;DHT22;10576;53.556;9.868;2023-08-24T11:33:02;25.20;99.90
20831;DHT22;10576;53.556;9.868;2023-08-24T11:35:29;25.20;99.90
20831;DHT22;10576;53.556;9.868;2023-08-24T11:37:55;25.20;99.90
20831;DHT22;10576;53.556;9.868;2023-08-24T11:40:22;25.30;99.90
20831;DHT22;10576;53.556;9.868;2023-08-24T11:42:54;25.50;99.90
20831;DHT22;10576;53.556;9.868;2023-08-24T11:45:21;25.60;99.90
20831;DHT22;10576;53.556;9.868;2023-08-24T11:47:48;25.60;99.90
20831;DHT22;10576;53.556;9.868;2023-08-24T11:50:13;25.60;99.90
20831;DHT22;10576;53.556;9.868;2023-08-24T11:52:40;25.50;99.90
20831;DHT22;10576;53.556;9.868;2023-08-24T11:55:06;25.60;99.90
20831;DHT22;10576;53.556;9.868;2023-08-24T11:57:35;25.50;99.90
20831;DHT22;10576;53.556;9.868;2023-08-24T12:00:02;25.70;99.90
20831;DHT22;10576;53.556;9.868;2023-08-24T12:02:30;25.80;99.90
20831;DHT22;10576;53.556;9.868;2023-08-24T12:04:56;25.90;99.90
20831;DHT22;10576;53.556;9.868;2023-08-24T12:07:22;26.00;99.90
20831;DHT22;10576;53.556;9.868;2023-08-24T12:09:48;26.00;99.90
20831;DHT22;10576;53.556;9.868;2023-08-24T12:12:18;26.00;99.90
20831;DHT22;10576;53.556;9.868;2023-08-24T12:14:47;25.90;99.90
20831;DHT22;10576;53.556;9.868;2023-08-24T12:17:15;25.90;99.90
20831;DHT22;10576;53.556;9.868;2023-08-24T12:19:42;26.00;99.90
20831;DHT22;10576;53.556;9.868;2023-08-24T12:22:15;26.10;99.90
20831;DHT22;10576;53.556;9.868;2023-08-24T12:24:45;26.30;99.90
20831;DHT22;10576;53.556;9.868;2023-08-24T12:27:22;26.40;99.90
20831;DHT22;10576;53.556;9.868;2023-08-24T12:29:48;26.30;99.90
20831;DHT22;10576;53.556;9.868;2023-08-24T12:32:14;26.30;99.90
20831;DHT22;10576;53.556;9.868;2023-08-24T12:34:46;26.30;99.90
20831;DHT22;10576;53.556;9.868;2023-08-24T12:37:12;26.30;99.90
20831;DHT22;10576;53.556;9.868;2023-08-24T12:39:38;26.20;99.90
20831;DHT22;10576;53.556;9.868;2023-08-24T12:42:05;26.30;99.90
20831;DHT22;10576;53.556;9.868;2023-08-24T12:44:30;26.10;99.90
20831;DHT22;10576;53.556;9.868;2023-08-24T12:46:56;26.00;99.90
20831;DHT22;10576;53.556;9.868;2023-08-24T12:49:22;25.90;99.90
20831;DHT22;10576;53.556;9.868;2023-08-24T12:51:47;25.80;99.90
20831;DHT22;10576;53.556;9.868;2023-08-24T12:54:13;25.80;99.90
20831;DHT22;10576;53.556;9.868;2023-08-24T12:56:39;25.80;99.90
20831;DHT22;10576;53.556;9.868;2023-08-24T12:59:06;25.90;99.90
20831;DHT22;10576;53.556;9.868;2023-08-24T13:01:32;26.10;99.90
20831;DHT22;10576;53.556;9.868;2023-08-24T13:03:57;26.10;99.90
20831;DHT22;10576;53.556;9.868;2023-08-24T13:06:23;26.20;99.90
20831;DHT22;10576;53.556;9.868;2023-08-24T13:08:49;26.10;99.90
20831;DHT22;10576;53.556;9.868;2023-08-24T13:11:14;26.10;99.90
20831;DHT22;10576;53.556;9.868;2023-08-24T13:13:40;26.00;99.90
20831;DHT22;10576;53.556;9.868;2023-08-24T13:16:06;25.90;99.90
20831;DHT22;10576;53.556;9.868;2023-08-24T13:18:32;25.90;99.90
20831;DHT22;10576;53.556;9.868;2023-08-24T13:20:58;25.90;99.90
20831;DHT22;10576;53.556;9.868;2023-08-24T13:23:23;26.10;99.90
20831;DHT22;10576;53.556;9.868;2023-08-24T13:25:49;26.00;99.90
20831;DHT22;10576;53.556;9.868;2023-08-24T13:28:14;25.90;99.90
20831;DHT22;10576;53.556;9.868;2023-08-24T13:30:40;25.80;99.90
20831;DHT22;10576;53.556;9.868;2023-08-24T13:33:06;25.70;99.90
20831;DHT22;10576;53.556;9.868;2023-08-24T13:35:32;25.70;99.90
20831;DHT22;10576;53.556;9.868;2023-08-24T13:37:58;25.60;99.90
20831;DHT22;10576;53.556;9.868;2023-08-24T13:40:23;25.50;99.90
20831;DHT22;10576;53.556;9.868;2023-08-24T13:42:49;25.40;99.90
20831;DHT22;10576;53.556;9.868;2023-08-24T13:45:14;25.30;99.90
20831;DHT22;10576;53.556;9.868;2023-08-24T13:47:41;25.20;99.90
20831;DHT22;10576;53.556;9.868;2023-08-24T13:50:07;25.40;99.90
20831;DHT22;10576;53.556;9.868;2023-08-24T13:52:33;25.30;99.90
20831;DHT22;10576;53.556;9.868;2023-08-24T13:54:59;25.20;99.90
20831;DHT22;10576;53.556;9.868;2023-08-24T13:57:24;25.20;99.90
20831;DHT22;10576;53.556;9.868;2023-08-24T13:59:50;25.10;99.90
20831;DHT22;10576;53.556;9.868;2023-08-24T14:02:15;25.00;99.90
20831;DHT22;10576;53.556;9.868;2023-08-24T14:04:41;24.90;99.90
20831;DHT22;10576;53.556;9.868;2023-08-24T14:07:07;24.80;99.90
20831;DHT22;10576;53.556;9.868;2023-08-24T14:09:32;24.80;99.90
20831;DHT22;10576;53.556;9.868;2023-08-24T14:11:58;24.70;99.90
20831;DHT22;10576;53.556;9.868;2023-08-24T14:16:56;24.90;99.90
20831;DHT22;10576;53.556;9.868;2023-08-24T14:19:23;24.90;99.90
20831;DHT22;10576;53.556;9.868;2023-08-24T14:21:48;25.00;99.90
20831;DHT22;10576;53.556;9.868;2023-08-24T14:24:14;25.00;99.90
20831;DHT22;10576;53.556;9.868;2023-08-24T14:26:40;25.00;99.90
20831;DHT22;10576;53.556;9.868;2023-08-24T14:29:11;25.00;99.90
20831;DHT22;10576;53.556;9.868;2023-08-24T14:31:36;25.00;99.90
20831;DHT22;10576;53.556;9.868;2023-08-24T14:34:02;24.90;99.90
20831;DHT22;10576;53.556;9.868;2023-08-24T14:36:28;24.90;99.90
20831;DHT22;10576;53.556;9.868;2023-08-24T14:38:54;24.90;99.90
20831;DHT22;10576;53.556;9.868;2023-08-24T14:41:21;24.90;99.90
20831;DHT22;10576;53.556;9.868;2023-08-24T14:43:46;25.00;99.90
20831;DHT22;10576;53.556;9.868;2023-08-24T14:46:12;25.00;99.90
20831;DHT22;10576;53.556;9.868;2023-08-24T14:48:38;24.90;99.90
20831;DHT22;10576;53.556;9.868;2023-08-24T14:51:05;24.90;99.90
20831;DHT22;10576;53.556;9.868;2023-08-24T14:53:30;24.90;99.90
20831;DHT22;10576;53.556;9.868;2023-08-24T14:55:56;24.90;99.90
20831;DHT22;10576;53.556;9.868;2023-08-24T14:58:23;24.90;99.90
20831;DHT22;10576;53.556;9.868;2023-08-24T15:00:53;25.00;99.90
20831;DHT22;10576;53.556;9.868;2023-08-24T15:03:19;25.00;99.90
20831;DHT22;10576;53.556;9.868;2023-08-24T15:06:05;24.90;99.90
20831;DHT22;10576;53.556;9.868;2023-08-24T15:08:32;24.80;99.90
20831;DHT22;10576;53.556;9.868;2023-08-24T15:11:00;24.90;99.90
20831;DHT22;10576;53.556;9.868;2023-08-24T15:13:27;24.80;99.90
20831;DHT22;10576;53.556;9.868;2023-08-24T15:15:54;24.80;99.90
20831;DHT22;10576;53.556;9.868;2023-08-24T15:18:21;24.80;99.90
20831;DHT22;10576;53.556;9.868;2023-08-24T15:20:46;24.90;99.90
20831;DHT22;10576;53.556;9.868;2023-08-24T15:23:25;24.90;99.90
20831;DHT22;10576;53.556;9.868;2023-08-24T15:25:52;24.80;99.90
20831;DHT22;10576;53.556;9.868;2023-08-24T15:28:17;24.80;99.90
20831;DHT22;10576;53.556;9.868;2023-08-24T15:30:43;24.80;99.90
20831;DHT22;10576;53.556;9.868;2023-08-24T15:33:09;24.70;99.90
20831;DHT22;10576;53.556;9.868;2023-08-24T15:35:35;24.70;99.90
20831;DHT22;10576;53.556;9.868;2023-08-24T15:38:01;24.60;99.90
20831;DHT22;10576;53.556;9.868;2023-08-24T15:40:29;24.60;99.90
20831;DHT22;10576;53.556;9.868;2023-08-24T15:42:56;24.40;99.90
20831;DHT22;10576;53.556;9.868;2023-08-24T15:45:23;24.40;99.90
20831;DHT22;10576;53.556;9.868;2023-08-24T15:47:49;24.40;99.90